Time;durP1;ratioP1;P1;durP2;ratioP2;P2;SDS_P1;SDS_P2;PMS_P1;PMS_P2;Temp;Humidity;BMP_temperature;BMP_pressure;BME280_temperature;BME280_humidity;BME280_pressure;Samples;Min_cycle;Max_cycle;Signal;HPM_P1;HPM_P2
2023/04/10 00:02:21;;;;;;;68.70;30.52;;;;;;;-148.88;94.68;77254.19;5054648;28;20029;-83
2023/04/10 00:04:47;;;;;;;69.25;31.20;;;;;;;-148.88;96.22;77256.22;5054463;28;20483;-83
2023/04/10 00:07:13;;;;;;;63.30;29.85;;;;;;;-148.88;96.25;77248.09;5054567;28;20080;-83
2023/04/10 00:09:38;;;;;;;59.03;28.90;;;;;;;-148.88;96.59;77250.13;5054357;28;20024;-83
2023/04/10 00:12:04;;;;;;;54.90;27.13;;;;;;;-148.88;96.86;77248.09;5055708;28;20028;-83
2023/04/10 00:14:30;;;;;;;55.05;27.15;;;;;;;-148.88;97.07;77237.94;5054381;28;20020;-84
2023/04/10 00:16:55;;;;;;;59.80;26.80;;;;;;;-148.88;97.27;77227.78;5054431;28;20062;-84
2023/04/10 00:19:20;;;;;;;61.60;27.75;;;;;;;-148.88;96.35;77205.44;5054371;28;20025;-84
2023/04/10 00:21:46;;;;;;;63.67;31.13;;;;;;;-148.88;96.79;77219.66;5055610;28;20112;-84
2023/04/10 00:24:11;;;;;;;62.97;30.10;;;;;;;-148.88;96.25;77205.44;5054147;28;20122;-82
2023/04/10 00:26:39;;;;;;;58.33;26.45;;;;;;;-148.88;96.78;77199.31;5055620;28;20023;-84
2023/04/10 00:29:05;;;;;;;55.00;26.58;;;;;;;-148.88;97.05;77211.53;5055336;28;20052;-84
2023/04/10 00:31:30;;;;;;;58.63;28.38;;;;;;;-148.88;97.34;77205.44;5055474;28;20419;-83
2023/04/10 00:33:56;;;;;;;53.85;25.48;;;;;;;-148.88;98.46;77248.09;5053950;28;20048;-83
2023/04/10 00:36:22;;;;;;;57.15;26.15;;;;;;;-148.88;98.92;77256.22;5053829;28;20025;-83
2023/04/10 00:38:49;;;;;;;57.10;25.40;;;;;;;-148.88;99.33;77256.22;5053984;28;20028;-84
2023/04/10 00:41:15;;;;;;;52.50;24.27;;;;;;;-148.88;99.28;77248.09;5053981;28;20464;-84
2023/04/10 00:43:41;;;;;;;56.28;25.73;;;;;;;-148.88;99.57;77248.09;5055004;28;20487;-84
2023/04/10 00:46:06;;;;;;;59.45;25.88;;;;;;;-148.88;99.50;77256.22;5055040;28;20032;-84
2023/04/10 00:48:32;;;;;;;53.13;24.88;;;;;;;-148.88;100.00;77260.28;5054907;28;20036;-83
2023/04/10 00:50:59;;;;;;;52.15;24.48;;;;;;;-148.88;100.00;77260.28;5053803;28;20395;-83
2023/04/10 00:53:24;;;;;;;57.88;25.92;;;;;;;-148.88;100.00;77264.34;5054412;28;20028;-83
2023/04/10 00:55:50;;;;;;;57.28;23.80;;;;;;;-148.88;100.00;77260.28;5055164;28;20025;-84
2023/04/10 00:58:15;;;;;;;50.00;24.95;;;;;;;-148.88;100.00;77264.34;5053596;28;20051;-83
2023/04/10 01:00:40;;;;;;;49.67;22.63;;;;;;;-148.88;100.00;77276.53;5053752;28;20119;-84
2023/04/10 01:03:11;;;;;;;47.65;23.48;;;;;;;-148.88;100.00;77264.34;5053375;28;20020;-83
2023/04/10 01:06:18;;;;;;;48.63;23.73;;;;;;;-148.88;100.00;77260.28;5053370;28;20036;-83
2023/04/10 01:09:08;;;;;;;56.97;27.15;;;;;;;-148.88;100.00;77300.94;5049565;28;20037;-83
2023/04/10 01:11:42;;;;;;;55.92;25.73;;;;;;;-148.88;100.00;77309.06;5055147;28;20430;-83
2023/04/10 01:14:41;;;;;;;60.13;26.30;;;;;;;-148.88;100.00;77337.50;5054512;28;20029;-83
2023/04/10 01:17:11;;;;;;;59.97;25.42;;;;;;;-148.88;100.00;77329.38;5029110;28;20033;-83
2023/04/10 01:19:59;;;;;;;52.10;24.55;;;;;;;-148.88;100.00;77335.47;5053297;28;20116;-83
2023/04/10 01:22:35;;;;;;;50.47;23.48;;;;;;;-148.88;100.00;77335.47;5054628;28;20040;-83
2023/04/10 01:25:13;;;;;;;42.42;22.10;;;;;;;-148.88;100.00;77341.56;5054421;28;20043;-83
2023/04/10 01:28:00;;;;;;;52.10;23.10;;;;;;;-148.88;100.00;77333.44;5054361;28;20060;-83
2023/04/10 01:30:26;;;;;;;51.75;22.45;;;;;;;-148.88;100.00;77325.31;5053060;28;20513;-83
2023/04/10 01:32:58;;;;;;;42.75;21.05;;;;;;;-148.88;100.00;77325.31;5053007;28;20036;-83
2023/04/10 01:35:24;;;;;;;44.13;21.85;;;;;;;-148.88;100.00;77323.28;5054162;28;20071;-84
2023/04/10 01:37:52;;;;;;;42.05;21.10;;;;;;;-148.88;100.00;77313.13;5052833;28;20049;-83
2023/04/10 01:40:19;;;;;;;44.25;20.75;;;;;;;-148.88;100.00;77315.16;5054022;28;20041;-84
2023/04/10 01:42:51;;;;;;;42.60;19.75;;;;;;;-148.88;100.00;77317.19;5052775;28;20541;-83
2023/04/10 01:45:22;;;;;;;42.53;20.05;;;;;;;-148.88;100.00;77313.13;5052690;28;20483;-84
2023/04/10 01:47:47;;;;;;;36.50;19.83;;;;;;;-148.88;100.00;77309.06;5054301;28;20021;-83
2023/04/10 01:50:13;;;;;;;43.28;19.83;;;;;;;-148.88;100.00;77313.13;5052634;28;20039;-84
2023/04/10 01:52:39;;;;;;;42.22;19.80;;;;;;;-148.88;100.00;77323.28;5052650;28;20031;-83
2023/04/10 01:55:07;;;;;;;37.17;18.13;;;;;;;-148.88;100.00;77317.19;5053105;28;20020;-85
2023/04/10 01:57:34;;;;;;;41.35;18.77;;;;;;;-148.88;100.00;77311.09;5053710;28;20036;-82
2023/04/10 02:00:00;;;;;;;36.80;17.58;;;;;;;-148.88;100.00;77313.13;5054082;28;20029;-83
2023/04/10 02:02:30;;;;;;;36.83;18.13;;;;;;;-148.88;100.00;77309.06;5052296;28;20125;-83
2023/04/10 02:04:55;;;;;;;36.83;17.75;;;;;;;-148.88;100.00;77307.03;5053733;28;20029;-84
2023/04/10 02:07:32;;;;;;;40.17;19.02;;;;;;;-148.88;100.00;77309.06;5053605;28;20027;-82
2023/04/10 02:10:20;;;;;;;40.90;17.70;;;;;;;-148.88;100.00;77284.66;5053659;28;20024;-84
2023/04/10 02:12:52;;;;;;;35.55;16.95;;;;;;;-148.88;100.00;77284.66;5053265;28;20451;-83
2023/04/10 02:15:21;;;;;;;39.92;18.45;;;;;;;-148.88;100.00;77274.50;5052364;28;20049;-83
2023/04/10 02:17:47;;;;;;;39.92;17.70;;;;;;;-148.88;100.00;77272.47;5053884;28;20475;-83
2023/04/10 02:20:14;;;;;;;39.65;17.15;;;;;;;-148.88;100.00;77258.25;5053515;28;20031;-83
2023/04/10 02:22:44;;;;;;;36.33;18.33;;;;;;;-148.88;100.00;77254.19;5053640;28;20059;-84
2023/04/10 02:25:10;;;;;;;35.05;17.00;;;;;;;-148.88;100.00;77246.06;5053318;28;20115;-83
2023/04/10 02:27:36;;;;;;;31.92;16.17;;;;;;;-148.88;100.00;77237.94;5053350;28;20111;-82
2023/04/10 02:30:02;;;;;;;41.25;18.38;;;;;;;-148.88;100.00;77235.91;5053558;28;20075;-83
2023/04/10 02:32:28;;;;;;;37.35;17.17;;;;;;;-148.88;100.00;77229.81;5053433;28;20446;-83
2023/04/10 02:34:54;;;;;;;39.92;17.60;;;;;;;-148.88;100.00;77233.88;5052133;28;20021;-83
2023/04/10 02:37:19;;;;;;;38.45;16.88;;;;;;;-148.88;100.00;77229.81;5051972;28;20108;-83
2023/04/10 02:39:44;;;;;;;33.20;16.30;;;;;;;-148.88;100.00;77231.84;5053316;28;20029;-83
2023/04/10 02:42:10;;;;;;;41.08;17.80;;;;;;;-148.88;100.00;77235.91;5052068;28;20051;-83
2023/04/10 02:44:36;;;;;;;39.40;16.92;;;;;;;-148.88;100.00;77231.84;5053494;28;20016;-82
2023/04/10 02:47:01;;;;;;;38.55;17.60;;;;;;;-148.88;100.00;77231.84;5051908;28;20020;-84
2023/04/10 02:49:26;;;;;;;43.05;18.15;;;;;;;-148.88;100.00;77233.88;5051731;28;20025;-83
2023/04/10 02:51:51;;;;;;;34.08;16.73;;;;;;;-148.88;100.00;77233.88;5052978;28;20518;-82
2023/04/10 02:54:17;;;;;;;37.42;16.50;;;;;;;-148.88;100.00;77233.88;5052834;28;20032;-83
2023/04/10 02:56:42;;;;;;;35.85;15.88;;;;;;;-148.88;100.00;77235.91;5053193;28;20025;-83
2023/04/10 02:59:07;;;;;;;32.90;15.48;;;;;;;-148.88;100.00;77227.78;5051607;28;20033;-83
2023/04/10 03:01:32;;;;;;;34.08;16.70;;;;;;;-148.88;100.00;77219.66;5052985;28;20387;-83
2023/04/10 03:03:58;;;;;;;33.03;15.18;;;;;;;-148.88;100.00;77221.69;5052961;28;20024;-82
2023/04/10 03:06:26;;;;;;;33.45;16.70;;;;;;;-148.88;100.00;77219.66;5056815;28;20024;-82
2023/04/10 03:08:52;;;;;;;34.30;16.73;;;;;;;-148.88;100.00;77211.53;5055905;28;20027;-82
2023/04/10 03:11:17;;;;;;;34.58;17.05;;;;;;;-148.88;100.00;77215.59;5057102;28;20017;-82
2023/04/10 03:13:42;;;;;;;35.30;16.70;;;;;;;-148.88;100.00;77217.63;5057179;28;20110;-82
2023/04/10 03:16:07;;;;;;;29.20;15.23;;;;;;;-148.88;100.00;77207.47;5055589;28;20021;-82
2023/04/10 03:18:33;;;;;;;35.45;16.05;;;;;;;-148.88;100.00;77215.59;5057024;28;20502;-82
2023/04/10 03:20:59;;;;;;;32.45;16.48;;;;;;;-148.88;100.00;77215.59;5057786;28;20021;-83
2023/04/10 03:23:24;;;;;;;35.35;15.70;;;;;;;-148.88;100.00;77215.59;5056756;28;20196;-82
2023/04/10 03:25:53;;;;;;;38.72;17.20;;;;;;;-148.88;100.00;77219.66;5055231;28;20055;-82
2023/04/10 03:28:20;;;;;;;36.95;16.40;;;;;;;-148.88;100.00;77215.59;5055396;28;20028;-82
2023/04/10 03:30:45;;;;;;;33.80;16.33;;;;;;;-148.88;100.00;77211.53;5056816;28;20120;-81
2023/04/10 03:33:10;;;;;;;41.10;16.50;;;;;;;-148.88;100.00;77207.47;5057131;28;20453;-83
2023/04/10 03:35:35;;;;;;;35.00;15.18;;;;;;;-148.88;100.00;77207.47;5056700;28;20056;-83
2023/04/10 03:38:01;;;;;;;32.15;15.60;;;;;;;-148.88;100.00;77205.44;5056686;28;20055;-83
2023/04/10 03:40:26;;;;;;;37.92;16.45;;;;;;;-148.88;100.00;77207.47;5055421;28;20017;-82
2023/04/10 03:42:51;;;;;;;37.10;16.05;;;;;;;-148.88;100.00;77201.34;5055287;28;20032;-82
2023/04/10 03:45:16;;;;;;;35.55;14.90;;;;;;;-148.88;100.00;77174.94;5056640;28;20016;-83
2023/04/10 03:47:42;;;;;;;36.38;16.13;;;;;;;-148.88;100.00;77197.28;5055639;28;20571;-83
2023/04/10 03:50:07;;;;;;;34.42;16.23;;;;;;;-148.88;100.00;77197.28;5055276;28;20075;-83
2023/04/10 03:52:33;;;;;;;34.20;15.50;;;;;;;-148.88;100.00;77158.69;5055362;28;20399;-83
2023/04/10 03:54:58;;;;;;;35.13;15.50;;;;;;;-148.88;100.00;77195.25;5055370;28;20394;-82
2023/04/10 03:57:23;;;;;;;36.00;16.75;;;;;;;-148.88;100.00;77152.59;5056290;28;20070;-83
2023/04/10 03:59:49;;;;;;;33.90;16.45;;;;;;;-148.88;100.00;77142.44;5054874;28;20041;-82
2023/04/10 04:02:14;;;;;;;35.08;15.95;;;;;;;-148.88;100.00;77158.69;5054839;28;20036;-82
2023/04/10 04:04:39;;;;;;;38.15;16.48;;;;;;;-148.88;100.00;77150.56;5056100;28;20041;-82
2023/04/10 04:07:05;;;;;;;34.20;16.38;;;;;;;-148.88;100.00;77152.59;5056089;28;20032;-83
2023/04/10 04:09:30;;;;;;;36.72;16.67;;;;;;;-148.88;100.00;77158.69;5056153;28;20482;-82
2023/04/10 04:11:56;;;;;;;30.48;15.90;;;;;;;-148.88;100.00;77148.53;5056171;28;20053;-83
2023/04/10 04:14:22;;;;;;;41.72;17.75;;;;;;;-148.88;100.00;77144.47;5055952;28;20029;-82
2023/04/10 04:16:47;;;;;;;32.08;16.25;;;;;;;-148.88;100.00;77150.56;5053941;28;20013;-83
2023/04/10 04:19:13;;;;;;;39.67;16.27;;;;;;;-148.88;100.00;77191.19;5056029;28;20403;-82
2023/04/10 04:21:38;;;;;;;34.38;15.63;;;;;;;-148.88;100.00;77195.25;5054654;28;20028;-83
2023/04/10 04:24:04;;;;;;;32.88;15.73;;;;;;;-148.88;100.00;77199.31;5055666;28;20035;-83
2023/04/10 04:26:29;;;;;;;31.77;15.38;;;;;;;-148.88;100.00;77199.31;5055779;28;20021;-83
2023/04/10 04:28:54;;;;;;;30.15;14.18;;;;;;;-148.88;100.00;77207.47;5054399;28;20078;-83
2023/04/10 04:31:20;;;;;;;33.45;15.50;;;;;;;-148.88;100.00;77211.53;5054596;28;20124;-82
2023/04/10 04:33:45;;;;;;;34.95;15.15;;;;;;;-148.88;100.00;77211.53;5055399;28;20492;-83
2023/04/10 04:36:10;;;;;;;36.72;16.08;;;;;;;-148.88;100.00;77209.50;5055814;28;20067;-82
2023/04/10 04:38:35;;;;;;;33.63;16.05;;;;;;;-148.88;100.00;77215.59;5053964;28;20047;-82
2023/04/10 04:41:01;;;;;;;33.72;15.07;;;;;;;-148.88;100.00;77217.63;5055290;28;20037;-83
2023/04/10 04:43:26;;;;;;;34.47;14.45;;;;;;;-148.88;100.00;77219.66;5054022;28;20419;-83
2023/04/10 04:45:51;;;;;;;39.53;15.27;;;;;;;-148.88;100.00;77233.88;5055258;28;20021;-83
2023/04/10 04:48:16;;;;;;;35.85;16.08;;;;;;;-148.88;100.00;77235.91;5055452;28;20403;-82
2023/04/10 04:50:42;;;;;;;29.48;15.07;;;;;;;-148.88;100.00;77227.78;5055633;28;20107;-82
2023/04/10 04:53:08;;;;;;;32.63;14.70;;;;;;;-148.88;100.00;77233.88;5055309;28;20021;-83
2023/04/10 04:55:33;;;;;;;30.23;14.73;;;;;;;-148.88;100.00;77229.81;5053717;28;20067;-82
2023/04/10 04:57:58;;;;;;;31.20;15.10;;;;;;;-148.88;100.00;77235.91;5056179;28;20104;-83
2023/04/10 05:00:24;;;;;;;34.95;16.08;;;;;;;-148.88;100.00;77229.81;5053992;28;20025;-82
2023/04/10 05:02:49;;;;;;;34.90;15.90;;;;;;;-148.88;100.00;77235.91;5055966;28;20051;-82
2023/04/10 05:05:15;;;;;;;32.83;14.35;;;;;;;-148.88;100.00;77235.91;5055159;28;20535;-83
2023/04/10 05:07:40;;;;;;;32.72;15.65;;;;;;;-148.88;100.00;77225.75;5053887;28;20391;-84
2023/04/10 05:10:06;;;;;;;32.72;14.80;;;;;;;-148.88;100.00;77227.78;5053498;28;20025;-82
2023/04/10 05:12:31;;;;;;;30.23;13.68;;;;;;;-148.88;100.00;77215.59;5054853;28;20020;-82
2023/04/10 05:14:56;;;;;;;33.75;14.07;;;;;;;-148.88;100.00;77207.47;5055367;28;20385;-82
2023/04/10 05:17:22;;;;;;;32.95;14.15;;;;;;;-148.88;100.00;77211.53;5055527;28;20021;-82
2023/04/10 05:19:47;;;;;;;28.38;13.73;;;;;;;-148.88;100.00;77174.94;5053440;28;20515;-83
2023/04/10 05:22:12;;;;;;;28.30;13.05;;;;;;;-148.88;100.00;77183.06;5055032;28;20083;-83
2023/04/10 05:24:37;;;;;;;31.52;15.05;;;;;;;-148.88;100.00;77146.50;5054641;28;20032;-83
2023/04/10 05:27:03;;;;;;;30.42;13.82;;;;;;;-148.88;100.00;77138.38;5054544;28;20403;-83
2023/04/10 05:29:28;;;;;;;30.15;13.63;;;;;;;-148.88;100.00;77128.22;5053671;28;20112;-83
2023/04/10 05:31:53;;;;;;;31.52;12.95;;;;;;;-148.88;100.00;77140.41;5053305;28;20029;-83
2023/04/10 05:34:18;;;;;;;28.58;13.63;;;;;;;-148.88;100.00;77166.81;5053231;28;20017;-83
2023/04/10 05:36:44;;;;;;;27.20;13.07;;;;;;;-148.88;100.00;77156.66;5054403;28;20033;-82
2023/04/10 05:39:09;;;;;;;27.40;12.38;;;;;;;-148.88;100.00;77146.50;5053204;28;20411;-83
2023/04/10 05:41:34;;;;;;;34.35;13.82;;;;;;;-148.88;100.00;77130.25;5053261;28;20483;-84
2023/04/10 05:44:00;;;;;;;31.30;14.25;;;;;;;-148.88;100.00;77116.03;5053362;28;20380;-84
2023/04/10 05:46:25;;;;;;;31.40;14.50;;;;;;;-148.88;100.00;77101.78;5052945;28;20017;-83
2023/04/10 05:48:50;;;;;;;30.38;14.30;;;;;;;-148.88;100.00;77085.53;5054162;28;20495;-83
2023/04/10 05:51:16;;;;;;;29.55;14.02;;;;;;;-148.88;100.00;77069.28;5054250;28;20108;-83
2023/04/10 05:53:41;;;;;;;27.42;13.02;;;;;;;-148.88;100.00;77055.06;5054106;28;20020;-84
2023/04/10 05:56:10;;;;;;;27.50;11.93;;;;;;;-148.88;100.00;77040.84;5053806;28;20017;-83
2023/04/10 05:58:35;;;;;;;27.00;12.35;;;;;;;-148.88;100.00;77036.78;5054069;28;20104;-83
2023/04/10 06:01:00;;;;;;;27.13;12.02;;;;;;;-148.88;100.00;77016.47;5052808;28;20162;-82
2023/04/10 06:03:26;;;;;;;26.60;11.25;;;;;;;-148.88;99.80;77008.34;5052734;28;20024;-84
2023/04/10 06:05:52;;;;;;;30.05;12.65;;;;;;;-148.88;98.72;76992.06;5053875;28;20099;-83
2023/04/10 06:08:18;;;;;;;30.40;12.52;;;;;;;-148.88;99.53;76990.03;5054421;28;20029;-83
2023/04/10 06:10:45;;;;;;;24.92;12.45;;;;;;;-148.88;99.27;76973.78;5052421;28;20036;-83
2023/04/10 06:13:10;;;;;;;25.58;12.57;;;;;;;-148.88;98.84;76951.44;5053728;28;20100;-82
2023/04/10 06:15:35;;;;;;;24.25;11.68;;;;;;;-148.88;99.02;76947.38;5053394;28;20052;-83
2023/04/10 06:18:00;;;;;;;27.85;12.82;;;;;;;-148.88;99.22;76935.19;5054014;28;20041;-85
2023/04/10 06:20:26;;;;;;;23.70;12.18;;;;;;;-148.88;98.11;76931.13;5052150;28;20024;-83
2023/04/10 06:22:51;;;;;;;25.23;11.52;;;;;;;-148.88;98.04;76931.13;5052382;28;20046;-84
2023/04/10 06:25:16;;;;;;;28.27;11.95;;;;;;;-148.88;98.26;76931.13;5052047;28;20020;-84
2023/04/10 06:27:41;;;;;;;22.40;11.60;;;;;;;-148.88;97.31;76927.06;5053797;28;20017;-83
2023/04/10 06:30:07;;;;;;;23.55;11.25;;;;;;;-148.88;97.19;76914.88;5052163;28;20021;-84
2023/04/10 06:32:33;;;;;;;24.20;11.85;;;;;;;-148.88;97.21;76912.84;5053216;28;20395;-83
2023/04/10 06:34:58;;;;;;;24.73;11.55;;;;;;;-148.88;97.03;76908.78;5052018;28;20021;-84
2023/04/10 06:37:30;;;;;;;23.65;11.05;;;;;;;-148.88;96.73;76910.81;5053183;28;20020;-84
2023/04/10 06:40:21;;;;;;;24.27;11.82;;;;;;;-148.88;97.03;76906.75;5052081;28;20029;-84
2023/04/10 06:42:46;;;;;;;25.48;11.55;;;;;;;-148.88;97.80;76890.50;5051024;28;20065;-84
2023/04/10 06:45:12;;;;;;;24.58;11.65;;;;;;;-148.88;97.34;76878.28;5053166;28;20029;-84
2023/04/10 06:47:37;;;;;;;25.05;10.70;;;;;;;-148.88;96.66;76862.03;5052916;28;20029;-84
2023/04/10 06:50:03;;;;;;;24.42;11.85;;;;;;;-148.88;96.41;76847.81;5053810;28;20036;-84
2023/04/10 06:52:28;;;;;;;23.45;11.65;;;;;;;-148.88;95.76;76833.59;5052807;28;20475;-84
2023/04/10 06:54:53;;;;;;;25.10;11.77;;;;;;;-148.88;95.52;76819.38;5053499;28;20017;-84
2023/04/10 06:57:18;;;;;;;23.17;10.63;;;;;;;-148.88;95.11;76813.28;5051792;28;20479;-84
2023/04/10 06:59:44;;;;;;;21.10;11.02;;;;;;;-148.88;94.89;76799.06;5053439;28;20032;-83
2023/04/10 07:02:09;;;;;;;24.83;12.35;;;;;;;-148.88;93.65;76788.91;5053040;28;20025;-84
2023/04/10 07:04:35;;;;;;;21.67;11.18;;;;;;;-148.88;92.30;76776.72;5053472;28;20395;-85
2023/04/10 07:07:00;;;;;;;24.20;10.73;;;;;;;-148.88;92.27;76760.44;5053553;28;20464;-84
2023/04/10 07:09:26;;;;;;;21.25;11.10;;;;;;;-148.88;91.12;76744.19;5053489;28;20036;-85
2023/04/10 07:11:52;;;;;;;25.15;11.85;;;;;;;-148.88;91.41;76717.78;5052327;28;20394;-84
2023/04/10 07:14:17;;;;;;;22.52;11.07;;;;;;;-148.88;90.19;76707.63;5053405;28;20029;-84
2023/04/10 07:16:44;;;;;;;22.88;10.90;;;;;;;-148.88;90.41;76687.31;5052624;28;20105;-85
2023/04/10 07:19:10;;;;;;;22.13;10.60;;;;;;;-148.88;88.57;76675.13;5052186;28;20028;-86
2023/04/10 07:21:35;;;;;;;23.13;11.18;;;;;;;-148.88;87.67;76654.81;5053238;28;20410;-86
2023/04/10 07:24:01;;;;;;;23.42;11.27;;;;;;;-148.88;87.89;76634.50;5051523;28;20029;-85
2023/04/10 07:26:26;;;;;;;20.48;10.43;;;;;;;-148.88;86.44;76610.13;5051485;28;20028;-86
2023/04/10 07:28:51;;;;;;;21.40;9.60;;;;;;;-148.88;86.81;76581.66;5051468;28;20167;-87
2023/04/10 07:31:17;;;;;;;21.45;10.77;;;;;;;-148.88;85.14;76577.59;5051547;28;20024;-86
2023/04/10 07:33:44;;;;;;;20.40;15.80;;;;;;;-148.88;84.95;76561.34;5051363;28;20021;-87
2023/04/10 07:36:10;;;;;;;18.50;10.48;;;;;;;-148.88;83.79;76541.03;5052913;28;20502;-85
2023/04/10 07:38:36;;;;;;;20.67;15.52;;;;;;;-148.88;83.65;76526.81;5052591;28;20033;-85
2023/04/10 07:41:01;;;;;;;21.27;10.68;;;;;;;-148.88;82.68;76508.53;5052492;28;20033;-86
2023/04/10 07:43:27;;;;;;;19.38;9.45;;;;;;;-148.88;82.41;76492.28;5051188;28;20437;-85
2023/04/10 07:45:52;;;;;;;19.73;10.02;;;;;;;-148.88;82.77;76469.94;5051163;28;20025;-87
2023/04/10 07:48:17;;;;;;;20.88;15.05;;;;;;;-148.88;82.59;76451.66;5051174;28;20032;-89
2023/04/10 07:50:43;;;;;;;20.92;16.25;;;;;;;-148.88;82.96;76427.28;5051278;28;20496;-85
2023/04/10 07:53:08;;;;;;;20.35;10.15;;;;;;;-148.88;81.95;76411.00;5053798;28;20027;-86
2023/04/10 07:55:42;;;;;;;18.98;10.23;;;;;;;-148.88;81.87;76388.66;5054861;28;20021;-87
2023/04/10 07:58:08;;;;;;;17.67;14.25;;;;;;;-148.88;80.60;76364.28;5055604;28;20519;-85
2023/04/10 08:00:33;;;;;;;18.58;9.88;;;;;;;-148.88;79.21;76358.19;5056288;28;20029;-85
2023/04/10 08:02:59;;;;;;;18.58;14.13;;;;;;;-148.88;77.03;76329.75;5054877;28;20399;-86
2023/04/10 08:05:24;;;;;;;17.75;13.55;;;;;;;-148.88;78.29;76291.16;5054754;28;20087;-86
2023/04/10 08:07:50;;;;;;;15.98;13.05;;;;;;;-148.88;74.34;76256.63;5054938;28;20028;-86
2023/04/10 08:10:15;;;;;;;15.48;11.80;;;;;;;-148.88;71.85;76228.19;5055843;28;20388;-87
2023/04/10 08:12:40;;;;;;;15.20;11.88;;;;;;;-148.88;72.40;76199.75;5055112;28;20070;-86
2023/04/10 08:15:06;;;;;;;13.32;10.82;;;;;;;-148.88;67.84;76183.50;5056011;28;20029;-85
2023/04/10 08:17:31;;;;;;;14.85;11.32;;;;;;;-148.88;69.75;76144.91;5055648;28;20025;-86
2023/04/10 08:19:57;;;;;;;10.27;9.05;;;;;;;-148.88;59.29;76118.47;5055194;28;20025;-87
2023/04/10 08:22:22;;;;;;;10.52;9.15;;;;;;;-148.88;59.86;76112.41;5055565;28;20502;-86
2023/04/10 08:24:47;;;;;;;10.05;8.50;;;;;;;-148.88;57.56;76090.03;5055970;28;20033;-85
2023/04/10 08:27:14;;;;;;;10.48;8.20;;;;;;;-148.88;54.63;76075.81;5055665;28;20092;-84
2023/04/10 08:29:40;;;;;;;11.02;8.60;;;;;;;-148.88;57.11;76053.47;5055668;28;20032;-86
2023/04/10 08:32:05;;;;;;;10.07;8.13;;;;;;;-148.88;54.50;76047.38;5055430;28;20021;-87
2023/04/10 08:34:30;;;;;;;9.88;8.50;;;;;;;-148.88;54.44;76025.03;5054865;28;20029;-86
2023/04/10 08:36:56;;;;;;;10.15;8.45;;;;;;;-148.88;53.92;76014.88;5054376;28;20033;-88
2023/04/10 08:39:21;;;;;;;9.57;7.80;;;;;;;-148.88;54.18;76008.78;5054629;28;20045;-89
2023/04/10 08:41:46;;;;;;;10.15;8.35;;;;;;;-148.88;54.70;75976.28;5055981;28;20025;-85
2023/04/10 08:44:12;;;;;;;10.55;8.32;;;;;;;-148.88;52.70;75953.94;5054345;28;20203;-87
2023/04/10 08:46:42;;;;;;;11.75;8.43;;;;;;;-148.88;49.76;75960.03;5056091;28;20048;-87
2023/04/10 08:49:09;;;;;;;9.73;8.35;;;;;;;-148.88;50.41;75960.03;5056373;28;20056;-88
2023/04/10 08:51:44;;;;;;;9.65;8.27;;;;;;;-148.88;50.45;75919.41;5057152;28;20031;-89
2023/04/10 08:54:19;;;;;;;10.07;8.30;;;;;;;-148.88;49.93;75915.34;5056075;28;20028;-89
2023/04/10 08:56:50;;;;;;;13.15;8.93;;;;;;;-148.88;49.38;75927.53;5055485;28;20024;-84
2023/04/10 08:59:15;;;;;;;10.52;8.52;;;;;;;-148.88;49.95;75927.53;5054890;28;20029;-85
2023/04/10 09:01:40;;;;;;;10.73;8.68;;;;;;;-148.88;49.98;75911.28;5055602;28;20079;-88
2023/04/10 09:04:05;;;;;;;10.23;8.05;;;;;;;-148.88;50.54;75911.28;5055239;28;20048;-87
2023/04/10 09:06:31;;;;;;;9.63;8.07;;;;;;;-148.88;50.21;75897.06;5055322;28;20033;-86
2023/04/10 09:08:58;;;;;;;9.43;8.02;;;;;;;-148.88;50.18;75899.09;5055209;28;20040;-84
2023/04/10 09:11:54;;;;;;;10.32;8.05;;;;;;;-148.88;51.15;75878.78;5055894;28;20029;-87
2023/04/10 09:14:21;;;;;;;10.15;8.45;;;;;;;-148.88;49.24;75868.63;5055717;28;20032;-86
2023/04/10 09:16:46;;;;;;;10.43;7.97;;;;;;;-148.88;49.88;75830.03;5053948;28;20103;-84
2023/04/10 09:19:11;;;;;;;10.50;7.85;;;;;;;-148.88;48.82;75781.28;5053476;28;20167;-87
2023/04/10 09:21:37;;;;;;;9.45;7.68;;;;;;;-148.88;49.03;75736.59;5054836;28;20391;-86
2023/04/10 09:24:02;;;;;;;10.43;8.20;;;;;;;-148.88;49.22;75724.41;5056158;28;20032;-86
2023/04/10 09:26:29;;;;;;;10.73;8.18;;;;;;;-148.88;48.45;75732.53;5056577;28;20028;-86
2023/04/10 09:29:00;;;;;;;11.82;9.00;;;;;;;-148.88;48.80;75742.69;5056171;28;20056;-86
2023/04/10 09:31:36;;;;;;;11.18;8.25;;;;;;;-148.88;48.71;75708.16;5053580;28;20049;-87
2023/04/10 09:34:13;;;;;;;10.82;8.80;;;;;;;-148.88;45.59;75728.47;5055319;28;20436;-86
2023/04/10 09:36:51;;;;;;;11.02;9.02;;;;;;;-148.88;47.04;75720.34;5054612;28;20021;-86
2023/04/10 09:39:17;;;;;;;11.32;8.55;;;;;;;-148.88;46.13;75716.28;5055124;28;20041;-84
2023/04/10 09:41:56;;;;;;;11.48;8.50;;;;;;;-148.88;46.66;75667.53;5053943;28;20067;-85
2023/04/10 09:44:33;;;;;;;10.93;7.75;;;;;;;-148.88;45.37;75663.47;5054368;28;20021;-86
2023/04/10 09:47:14;;;;;;;10.82;8.68;;;;;;;-148.88;45.89;75647.22;5054038;28;20384;-86
2023/04/10 09:49:47;;;;;;;9.65;7.97;;;;;;;-148.88;47.36;75606.59;5053351;28;20021;-86
2023/04/10 09:52:25;;;;;;;10.48;8.20;;;;;;;-148.88;45.02;75639.09;5054776;28;20025;-87
2023/04/10 09:54:57;;;;;;;10.90;7.75;;;;;;;-148.88;44.21;75626.91;5054961;28;20025;-87
2023/04/10 09:57:24;;;;;;;10.27;8.02;;;;;;;-148.88;44.96;75641.13;5054522;28;20017;-86
2023/04/10 09:59:55;;;;;;;9.73;7.70;;;;;;;-148.88;44.95;75647.22;5055132;28;20033;-87
2023/04/10 10:02:22;;;;;;;10.77;8.25;;;;;;;-148.88;44.20;75647.22;5053385;28;20040;-86
2023/04/10 10:04:49;;;;;;;9.90;7.50;;;;;;;-148.88;44.18;75620.81;5054244;28;20033;-86
2023/04/10 10:07:16;;;;;;;9.40;7.93;;;;;;;-148.88;44.59;75559.91;5052831;28;20120;-86
2023/04/10 10:09:43;;;;;;;9.40;7.05;;;;;;;-148.88;43.24;75549.75;5053327;28;20506;-88
2023/04/10 10:12:15;;;;;;;8.80;6.53;;;;;;;-148.88;42.49;75572.09;5052671;28;20025;-88
2023/04/10 10:14:56;;;;;;;10.52;7.15;;;;;;;-148.88;42.83;75578.19;5052272;28;20025;-88
2023/04/10 10:17:23;;;;;;;9.23;6.72;;;;;;;-148.88;43.85;75553.81;5052540;28;20025;-87
2023/04/10 10:20:06;;;;;;;8.10;6.60;;;;;;;-148.88;41.85;75535.53;5052964;28;20025;-88
2023/04/10 10:22:32;;;;;;;8.27;6.90;;;;;;;-148.88;43.05;75513.19;5053625;28;20029;-86
2023/04/10 10:24:59;;;;;;;8.75;7.00;;;;;;;-148.88;42.58;75521.31;5054690;28;20336;-88
2023/04/10 10:27:26;;;;;;;7.60;6.40;;;;;;;-148.88;43.52;75513.19;5053906;28;20033;-87
2023/04/10 10:29:54;;;;;;;8.13;6.65;;;;;;;-148.88;42.16;75492.88;5054618;28;20387;-87
2023/04/10 10:32:20;;;;;;;9.18;7.20;;;;;;;-148.88;41.55;75517.25;5054275;28;20021;-87
2023/04/10 10:34:47;;;;;;;9.25;7.03;;;;;;;-148.88;41.84;75521.31;5053012;28;20601;-86
2023/04/10 10:37:12;;;;;;;7.47;6.60;;;;;;;-148.88;41.04;75553.81;5053846;28;20471;-87
2023/04/10 10:39:55;;;;;;;8.65;6.28;;;;;;;-148.88;41.52;75511.16;5054708;28;20058;-87
2023/04/10 10:42:35;;;;;;;7.18;5.88;;;;;;;-148.88;39.99;75490.84;5054605;28;20467;-85
2023/04/10 10:45:18;;;;;;;6.85;6.15;;;;;;;-148.88;40.55;75503.03;5053532;28;20435;-88
2023/04/10 10:47:50;;;;;;;7.90;6.10;;;;;;;-148.88;38.83;75505.06;5054137;28;20451;-87
2023/04/10 10:50:57;;;;;;;7.85;6.35;;;;;;;-148.88;39.57;75515.22;5053672;28;20032;-87
2023/04/10 10:53:30;;;;;;;7.15;5.88;;;;;;;-148.88;40.22;75458.34;5055213;28;20487;-88
2023/04/10 10:55:55;;;;;;;6.63;5.53;;;;;;;-148.88;38.48;75405.53;5054618;28;20047;-87
2023/04/10 10:58:51;;;;;;;7.88;5.93;;;;;;;-148.88;38.48;75387.25;5055323;28;20029;-87
2023/04/10 11:01:17;;;;;;;6.70;5.63;;;;;;;-148.88;37.89;75409.59;5055697;28;20094;-88
2023/04/10 11:03:44;;;;;;;6.60;5.15;;;;;;;-148.88;37.71;75358.81;5056840;28;20032;-88
2023/04/10 11:06:11;;;;;;;6.45;5.00;;;;;;;-148.88;38.36;75368.97;5056033;28;20066;-88